sensor_id;sensor_type;location;lat;lon;timestamp;pressure;altitude;pressure_sealevel;temperature;humidity
36234;BME280;43467;50.890;5.982;2023-03-26T00:01:05;99419.69;;;10.07;71.37
36234;BME280;43467;50.890;5.982;2023-03-26T00:03:33;99405.88;;;10.02;71.60
36234;BME280;43467;50.890;5.982;2023-03-26T00:06:10;99411.19;;;10.02;71.27
36234;BME280;43467;50.890;5.982;2023-03-26T00:08:38;99397.53;;;10.09;70.91
36234;BME280;43467;50.890;5.982;2023-03-26T00:11:05;99405.53;;;10.08;70.62
36234;BME280;43467;50.890;5.982;2023-03-26T00:13:31;99401.28;;;10.05;70.60
36234;BME280;43467;50.890;5.982;2023-03-26T00:15:57;99397.78;;;10.05;70.20
36234;BME280;43467;50.890;5.982;2023-03-26T00:18:23;99400.94;;;9.96;70.27
36234;BME280;43467;50.890;5.982;2023-03-26T00:20:54;99398.03;;;9.85;70.57
36234;BME280;43467;50.890;5.982;2023-03-26T00:23:20;99389.19;;;9.86;70.46
36234;BME280;43467;50.890;5.982;2023-03-26T00:25:46;99394.91;;;9.94;70.18
36234;BME280;43467;50.890;5.982;2023-03-26T00:28:15;99397.34;;;9.97;70.16
36234;BME280;43467;50.890;5.982;2023-03-26T00:30:42;99386.97;;;9.94;70.13
36234;BME280;43467;50.890;5.982;2023-03-26T00:33:07;99398.72;;;9.88;69.87
36234;BME280;43467;50.890;5.982;2023-03-26T00:35:39;99391.56;;;9.90;70.05
36234;BME280;43467;50.890;5.982;2023-03-26T00:38:04;99391.84;;;9.86;70.05
36234;BME280;43467;50.890;5.982;2023-03-26T00:40:29;99392.16;;;9.79;70.26
36234;BME280;43467;50.890;5.982;2023-03-26T00:42:56;99379.47;;;9.86;70.07
36234;BME280;43467;50.890;5.982;2023-03-26T00:45:21;99379.88;;;9.94;69.65
36234;BME280;43467;50.890;5.982;2023-03-26T00:47:47;99374.66;;;9.93;69.58
36234;BME280;43467;50.890;5.982;2023-03-26T00:50:12;99373.13;;;9.89;69.35
36234;BME280;43467;50.890;5.982;2023-03-26T00:52:43;99369.97;;;9.98;69.42
36234;BME280;43467;50.890;5.982;2023-03-26T00:55:10;99368.19;;;9.98;69.48
36234;BME280;43467;50.890;5.982;2023-03-26T00:57:36;99366.28;;;10.00;69.28
36234;BME280;43467;50.890;5.982;2023-03-26T01:00:08;99364.69;;;9.98;69.26
36234;BME280;43467;50.890;5.982;2023-03-26T01:02:35;99363.22;;;10.08;68.98
36234;BME280;43467;50.890;5.982;2023-03-26T01:05:39;99359.63;;;10.09;68.94
36234;BME280;43467;50.890;5.982;2023-03-26T01:10:52;99353.75;;;10.19;68.55
36234;BME280;43467;50.890;5.982;2023-03-26T01:13:28;99345.66;;;10.22;68.35
36234;BME280;43467;50.890;5.982;2023-03-26T01:15:54;99348.72;;;10.15;68.59
36234;BME280;43467;50.890;5.982;2023-03-26T01:18:22;99346.78;;;10.18;68.48
36234;BME280;43467;50.890;5.982;2023-03-26T01:20:54;99337.97;;;10.18;68.56
36234;BME280;43467;50.890;5.982;2023-03-26T01:23:28;99340.00;;;10.13;68.59
36234;BME280;43467;50.890;5.982;2023-03-26T01:26:10;99332.59;;;10.19;68.67
36234;BME280;43467;50.890;5.982;2023-03-26T01:28:40;99334.03;;;10.25;68.80
36234;BME280;43467;50.890;5.982;2023-03-26T01:34:22;99328.22;;;10.34;68.18
36234;BME280;43467;50.890;5.982;2023-03-26T01:37:33;99330.06;;;10.32;68.05
36234;BME280;43467;50.890;5.982;2023-03-26T01:40:32;99329.63;;;10.40;68.18
36234;BME280;43467;50.890;5.982;2023-03-26T01:45:51;99317.78;;;10.31;68.21
36234;BME280;43467;50.890;5.982;2023-03-26T01:48:17;99317.44;;;10.37;67.79
36234;BME280;43467;50.890;5.982;2023-03-26T01:50:43;99312.72;;;10.42;67.94
36234;BME280;43467;50.890;5.982;2023-03-26T01:53:10;99309.22;;;10.42;68.27
36234;BME280;43467;50.890;5.982;2023-03-26T02:04:20;99291.16;;;10.34;69.36
36234;BME280;43467;50.890;5.982;2023-03-26T02:09:29;99278.41;;;10.41;69.85
36234;BME280;43467;50.890;5.982;2023-03-26T02:11:56;99273.31;;;10.38;69.89
36234;BME280;43467;50.890;5.982;2023-03-26T02:14:23;99259.81;;;10.42;69.73
36234;BME280;43467;50.890;5.982;2023-03-26T02:16:48;99261.69;;;10.40;69.71
36234;BME280;43467;50.890;5.982;2023-03-26T02:19:15;99256.56;;;10.37;70.11
36234;BME280;43467;50.890;5.982;2023-03-26T02:21:46;99250.63;;;10.34;70.00
36234;BME280;43467;50.890;5.982;2023-03-26T02:24:15;99247.44;;;10.43;69.79
36234;BME280;43467;50.890;5.982;2023-03-26T02:26:41;99231.16;;;10.49;69.38
36234;BME280;43467;50.890;5.982;2023-03-26T02:29:06;99233.53;;;10.53;69.58
36234;BME280;43467;50.890;5.982;2023-03-26T02:31:31;99237.50;;;10.60;69.86
36234;BME280;43467;50.890;5.982;2023-03-26T02:33:57;99232.41;;;10.57;69.22
36234;BME280;43467;50.890;5.982;2023-03-26T02:36:23;99237.41;;;10.62;69.28
36234;BME280;43467;50.890;5.982;2023-03-26T02:38:51;99230.91;;;10.67;69.38
36234;BME280;43467;50.890;5.982;2023-03-26T02:41:17;99233.06;;;10.75;69.03
36234;BME280;43467;50.890;5.982;2023-03-26T02:43:42;99219.13;;;10.86;68.89
36234;BME280;43467;50.890;5.982;2023-03-26T02:46:08;99219.13;;;10.86;68.50
36234;BME280;43467;50.890;5.982;2023-03-26T02:48:33;99216.69;;;10.83;68.58
36234;BME280;43467;50.890;5.982;2023-03-26T02:51:03;99210.13;;;10.88;68.93
36234;BME280;43467;50.890;5.982;2023-03-26T02:53:28;99201.75;;;10.82;68.39
36234;BME280;43467;50.890;5.982;2023-03-26T02:55:58;99196.63;;;10.93;68.90
36234;BME280;43467;50.890;5.982;2023-03-26T02:58:24;99193.59;;;10.99;68.90
36234;BME280;43467;50.890;5.982;2023-03-26T03:00:53;99182.22;;;10.97;68.10
36234;BME280;43467;50.890;5.982;2023-03-26T03:03:26;99187.72;;;11.08;68.87
36234;BME280;43467;50.890;5.982;2023-03-26T03:05:53;99184.44;;;11.17;68.88
36234;BME280;43467;50.890;5.982;2023-03-26T03:08:22;99182.78;;;11.16;68.60
36234;BME280;43467;50.890;5.982;2023-03-26T03:10:59;99179.25;;;11.15;68.30
36234;BME280;43467;50.890;5.982;2023-03-26T03:13:25;99167.91;;;11.13;68.42
36234;BME280;43467;50.890;5.982;2023-03-26T03:15:51;99161.56;;;11.16;68.79
36234;BME280;43467;50.890;5.982;2023-03-26T03:18:16;99163.56;;;11.12;69.01
36234;BME280;43467;50.890;5.982;2023-03-26T03:20:42;99170.56;;;11.13;68.74
36234;BME280;43467;50.890;5.982;2023-03-26T03:23:08;99154.94;;;11.09;68.87
36234;BME280;43467;50.890;5.982;2023-03-26T03:25:34;99145.75;;;11.14;68.87
36234;BME280;43467;50.890;5.982;2023-03-26T03:27:59;99141.97;;;11.18;69.75
36234;BME280;43467;50.890;5.982;2023-03-26T03:30:24;99135.94;;;11.16;70.61
36234;BME280;43467;50.890;5.982;2023-03-26T03:32:50;99135.94;;;11.16;71.25
36234;BME280;43467;50.890;5.982;2023-03-26T03:35:15;99130.72;;;11.15;71.64
36234;BME280;43467;50.890;5.982;2023-03-26T03:37:41;99123.72;;;11.14;71.33
36234;BME280;43467;50.890;5.982;2023-03-26T03:40:07;99113.97;;;11.14;71.68
36234;BME280;43467;50.890;5.982;2023-03-26T03:42:35;99108.69;;;11.14;72.18
36234;BME280;43467;50.890;5.982;2023-03-26T03:45:00;99106.97;;;11.13;71.42
36234;BME280;43467;50.890;5.982;2023-03-26T03:47:26;99110.38;;;11.15;71.62
36234;BME280;43467;50.890;5.982;2023-03-26T03:49:51;99096.38;;;11.13;71.92
36234;BME280;43467;50.890;5.982;2023-03-26T03:52:18;99102.53;;;11.14;72.00
36234;BME280;43467;50.890;5.982;2023-03-26T03:54:43;99090.13;;;11.14;71.97
36234;BME280;43467;50.890;5.982;2023-03-26T03:57:08;99091.72;;;11.17;72.00
36234;BME280;43467;50.890;5.982;2023-03-26T03:59:34;99073.59;;;11.11;72.23
36234;BME280;43467;50.890;5.982;2023-03-26T04:01:59;99075.19;;;11.13;71.81
36234;BME280;43467;50.890;5.982;2023-03-26T04:04:25;99059.50;;;11.10;72.34
36234;BME280;43467;50.890;5.982;2023-03-26T04:06:50;99057.63;;;11.12;72.12
36234;BME280;43467;50.890;5.982;2023-03-26T04:09:16;99069.72;;;11.16;72.21
36234;BME280;43467;50.890;5.982;2023-03-26T04:11:42;99064.06;;;11.21;71.62
36234;BME280;43467;50.890;5.982;2023-03-26T04:14:07;99052.75;;;11.19;71.83
36234;BME280;43467;50.890;5.982;2023-03-26T04:16:34;99051.25;;;11.15;72.13
36234;BME280;43467;50.890;5.982;2023-03-26T04:19:00;99038.22;;;11.12;72.23
36234;BME280;43467;50.890;5.982;2023-03-26T04:21:27;99033.78;;;11.12;71.68
36234;BME280;43467;50.890;5.982;2023-03-26T04:23:54;99032.16;;;11.10;71.29
36234;BME280;43467;50.890;5.982;2023-03-26T04:26:20;99022.03;;;10.90;71.97
36234;BME280;43467;50.890;5.982;2023-03-26T04:28:56;99022.38;;;10.98;71.59
36234;BME280;43467;50.890;5.982;2023-03-26T04:31:24;99014.44;;;10.98;71.78
36234;BME280;43467;50.890;5.982;2023-03-26T04:33:54;99013.25;;;10.89;71.80
36234;BME280;43467;50.890;5.982;2023-03-26T04:36:27;99013.38;;;10.88;72.71
36234;BME280;43467;50.890;5.982;2023-03-26T04:38:53;98996.50;;;10.89;72.33
36234;BME280;43467;50.890;5.982;2023-03-26T04:41:19;98987.72;;;10.88;72.81
36234;BME280;43467;50.890;5.982;2023-03-26T04:43:46;98987.22;;;10.96;72.83
36234;BME280;43467;50.890;5.982;2023-03-26T04:46:15;98980.09;;;10.84;72.70
36234;BME280;43467;50.890;5.982;2023-03-26T04:48:46;98979.66;;;10.90;73.67
36234;BME280;43467;50.890;5.982;2023-03-26T04:51:13;98973.22;;;10.94;73.56
36234;BME280;43467;50.890;5.982;2023-03-26T04:54:02;98968.00;;;10.80;74.24
36234;BME280;43467;50.890;5.982;2023-03-26T04:57:00;98961.97;;;10.78;74.66
36234;BME280;43467;50.890;5.982;2023-03-26T04:59:29;98959.31;;;10.78;74.83
36234;BME280;43467;50.890;5.982;2023-03-26T05:01:59;98952.84;;;10.82;74.94
36234;BME280;43467;50.890;5.982;2023-03-26T05:04:26;98959.41;;;10.76;74.97
36234;BME280;43467;50.890;5.982;2023-03-26T05:06:54;98929.84;;;10.69;75.18
36234;BME280;43467;50.890;5.982;2023-03-26T05:09:21;98929.75;;;10.71;75.49
36234;BME280;43467;50.890;5.982;2023-03-26T05:11:46;98925.19;;;10.73;75.55
36234;BME280;43467;50.890;5.982;2023-03-26T05:14:12;98931.34;;;10.73;75.67
36234;BME280;43467;50.890;5.982;2023-03-26T05:16:38;98928.69;;;10.73;75.52
36234;BME280;43467;50.890;5.982;2023-03-26T05:19:05;98929.13;;;10.80;75.13
36234;BME280;43467;50.890;5.982;2023-03-26T05:21:31;98924.50;;;10.84;74.79
36234;BME280;43467;50.890;5.982;2023-03-26T05:23:56;98907.53;;;10.73;74.89
36234;BME280;43467;50.890;5.982;2023-03-26T05:26:22;98921.31;;;10.79;75.09
36234;BME280;43467;50.890;5.982;2023-03-26T05:28:47;98919.19;;;10.71;75.61
36234;BME280;43467;50.890;5.982;2023-03-26T05:31:12;98912.91;;;10.72;75.84
36234;BME280;43467;50.890;5.982;2023-03-26T05:33:41;98902.66;;;10.67;76.03
36234;BME280;43467;50.890;5.982;2023-03-26T05:36:09;98905.81;;;10.72;76.05
36234;BME280;43467;50.890;5.982;2023-03-26T05:38:37;98894.03;;;10.64;75.72
36234;BME280;43467;50.890;5.982;2023-03-26T05:41:06;98898.09;;;10.69;76.10
36234;BME280;43467;50.890;5.982;2023-03-26T05:43:32;98895.53;;;10.68;76.40
36234;BME280;43467;50.890;5.982;2023-03-26T05:45:58;98890.91;;;10.71;75.94
36234;BME280;43467;50.890;5.982;2023-03-26T05:48:24;98885.78;;;10.68;76.09
36234;BME280;43467;50.890;5.982;2023-03-26T05:50:52;98891.00;;;10.70;75.96
36234;BME280;43467;50.890;5.982;2023-03-26T05:53:18;98885.63;;;10.71;75.94
36234;BME280;43467;50.890;5.982;2023-03-26T05:55:45;98882.97;;;10.71;76.47
36234;BME280;43467;50.890;5.982;2023-03-26T05:58:12;98873.19;;;10.72;76.69
36234;BME280;43467;50.890;5.982;2023-03-26T06:00:37;98869.28;;;10.78;77.29
36234;BME280;43467;50.890;5.982;2023-03-26T06:03:03;98864.09;;;10.76;77.60
36234;BME280;43467;50.890;5.982;2023-03-26T06:05:32;98866.44;;;10.81;77.37
36234;BME280;43467;50.890;5.982;2023-03-26T06:07:58;98868.56;;;10.88;77.63
36234;BME280;43467;50.890;5.982;2023-03-26T06:10:24;98857.22;;;10.86;77.57
36234;BME280;43467;50.890;5.982;2023-03-26T06:12:49;98857.66;;;10.93;77.34
36234;BME280;43467;50.890;5.982;2023-03-26T06:15:15;98849.50;;;10.96;77.23
36234;BME280;43467;50.890;5.982;2023-03-26T06:17:40;98851.09;;;10.98;77.18
36234;BME280;43467;50.890;5.982;2023-03-26T06:20:06;98850.34;;;10.96;77.70
36234;BME280;43467;50.890;5.982;2023-03-26T06:22:31;98847.38;;;11.01;77.37
36234;BME280;43467;50.890;5.982;2023-03-26T06:24:57;98846.88;;;10.96;78.20
36234;BME280;43467;50.890;5.982;2023-03-26T06:27:22;98838.38;;;10.91;78.19
36234;BME280;43467;50.890;5.982;2023-03-26T06:29:47;98835.84;;;10.89;78.74
36234;BME280;43467;50.890;5.982;2023-03-26T06:32:13;98832.56;;;10.86;77.80
36234;BME280;43467;50.890;5.982;2023-03-26T06:34:38;98834.47;;;10.84;77.60
36234;BME280;43467;50.890;5.982;2023-03-26T06:37:04;98821.56;;;10.79;76.42
36234;BME280;43467;50.890;5.982;2023-03-26T06:39:30;98827.47;;;10.83;76.38
36234;BME280;43467;50.890;5.982;2023-03-26T06:41:55;98819.84;;;10.65;77.73
36234;BME280;43467;50.890;5.982;2023-03-26T06:44:20;98825.13;;;10.65;77.35
36234;BME280;43467;50.890;5.982;2023-03-26T06:46:46;98818.13;;;10.64;76.90
36234;BME280;43467;50.890;5.982;2023-03-26T06:49:11;98825.13;;;10.65;76.64
36234;BME280;43467;50.890;5.982;2023-03-26T06:51:36;98816.34;;;10.65;76.22
36234;BME280;43467;50.890;5.982;2023-03-26T06:54:04;98822.38;;;10.54;76.63
36234;BME280;43467;50.890;5.982;2023-03-26T06:56:30;98808.69;;;10.48;76.88
36234;BME280;43467;50.890;5.982;2023-03-26T06:58:55;98820.13;;;10.48;76.86
36234;BME280;43467;50.890;5.982;2023-03-26T07:01:21;98814.31;;;10.43;75.99
36234;BME280;43467;50.890;5.982;2023-03-26T07:03:46;98809.53;;;10.36;75.35
36234;BME280;43467;50.890;5.982;2023-03-26T07:06:12;98814.72;;;10.37;76.27
36234;BME280;43467;50.890;5.982;2023-03-26T07:08:37;98808.59;;;10.49;76.58
36234;BME280;43467;50.890;5.982;2023-03-26T07:11:03;98803.75;;;10.43;76.88
36234;BME280;43467;50.890;5.982;2023-03-26T07:13:28;98805.63;;;10.41;76.95
36234;BME280;43467;50.890;5.982;2023-03-26T07:15:53;98802.25;;;10.39;77.40
36234;BME280;43467;50.890;5.982;2023-03-26T07:18:19;98797.91;;;10.38;77.41
36234;BME280;43467;50.890;5.982;2023-03-26T07:20:44;98805.72;;;10.40;76.79
36234;BME280;43467;50.890;5.982;2023-03-26T07:23:11;98797.78;;;10.40;76.93
36234;BME280;43467;50.890;5.982;2023-03-26T07:25:38;98787.00;;;10.43;76.90
36234;BME280;43467;50.890;5.982;2023-03-26T07:36:27;98778.25;;;10.55;76.78
36234;BME280;43467;50.890;5.982;2023-03-26T07:41:45;98769.00;;;10.60;76.32
36234;BME280;43467;50.890;5.982;2023-03-26T07:44:32;98777.25;;;10.56;77.00
36234;BME280;43467;50.890;5.982;2023-03-26T07:47:10;98752.81;;;10.52;77.11
36234;BME280;43467;50.890;5.982;2023-03-26T07:49:42;98759.09;;;10.51;77.76
36234;BME280;43467;50.890;5.982;2023-03-26T07:52:09;98755.69;;;10.49;78.25
36234;BME280;43467;50.890;5.982;2023-03-26T07:54:35;98755.28;;;10.55;77.42
36234;BME280;43467;50.890;5.982;2023-03-26T07:57:04;98749.66;;;10.47;78.68
36234;BME280;43467;50.890;5.982;2023-03-26T07:59:35;98748.50;;;10.51;78.23
36234;BME280;43467;50.890;5.982;2023-03-26T08:02:34;98734.59;;;10.48;78.11
36234;BME280;43467;50.890;5.982;2023-03-26T08:05:23;98733.34;;;10.53;78.25
36234;BME280;43467;50.890;5.982;2023-03-26T08:13:30;98718.84;;;10.46;76.26
36234;BME280;43467;50.890;5.982;2023-03-26T08:16:11;98715.03;;;10.38;75.70
36234;BME280;43467;50.890;5.982;2023-03-26T08:18:56;98709.53;;;10.41;76.13
36234;BME280;43467;50.890;5.982;2023-03-26T08:21:27;98701.81;;;10.38;77.05
36234;BME280;43467;50.890;5.982;2023-03-26T08:26:36;98693.44;;;10.44;76.95
36234;BME280;43467;50.890;5.982;2023-03-26T08:29:22;98700.66;;;10.42;76.82
36234;BME280;43467;50.890;5.982;2023-03-26T08:31:51;98690.59;;;10.34;77.60
36234;BME280;43467;50.890;5.982;2023-03-26T08:34:18;98678.84;;;10.25;77.79
36234;BME280;43467;50.890;5.982;2023-03-26T08:36:44;98689.00;;;10.19;77.85
36234;BME280;43467;50.890;5.982;2023-03-26T08:39:10;98672.50;;;10.15;78.11
36234;BME280;43467;50.890;5.982;2023-03-26T08:58:07;98657.75;;;9.99;80.33
36234;BME280;43467;50.890;5.982;2023-03-26T09:03:57;98659.34;;;10.01;81.30
36234;BME280;43467;50.890;5.982;2023-03-26T09:07:02;98649.19;;;10.08;80.34
36234;BME280;43467;50.890;5.982;2023-03-26T09:26:25;98624.22;;;9.99;82.45
36234;BME280;43467;50.890;5.982;2023-03-26T09:37:49;98619.59;;;9.90;84.32
36234;BME280;43467;50.890;5.982;2023-03-26T09:40:18;98612.91;;;9.85;85.03
36234;BME280;43467;50.890;5.982;2023-03-26T09:46:02;98610.06;;;9.88;84.84
36234;BME280;43467;50.890;5.982;2023-03-26T10:02:16;98603.94;;;10.25;83.19
36234;BME280;43467;50.890;5.982;2023-03-26T10:23:01;98592.06;;;10.80;81.57
36234;BME280;43467;50.890;5.982;2023-03-26T10:28:39;98593.16;;;10.64;81.85
36234;BME280;43467;50.890;5.982;2023-03-26T10:31:15;98593.59;;;10.71;82.49
36234;BME280;43467;50.890;5.982;2023-03-26T10:36:35;98599.44;;;10.63;82.17
36234;BME280;43467;50.890;5.982;2023-03-26T10:39:26;98611.34;;;10.69;81.93
36234;BME280;43467;50.890;5.982;2023-03-26T10:44:48;98614.63;;;10.72;77.39
36234;BME280;43467;50.890;5.982;2023-03-26T10:52:46;98616.91;;;10.90;73.92
36234;BME280;43467;50.890;5.982;2023-03-26T10:55:18;98611.47;;;11.04;75.21
36234;BME280;43467;50.890;5.982;2023-03-26T10:57:55;98614.06;;;11.16;75.33
36234;BME280;43467;50.890;5.982;2023-03-26T11:00:25;98609.75;;;11.27;73.64
36234;BME280;43467;50.890;5.982;2023-03-26T11:03:38;98617.88;;;11.36;74.49
36234;BME280;43467;50.890;5.982;2023-03-26T11:08:59;98614.53;;;11.45;70.08
36234;BME280;43467;50.890;5.982;2023-03-26T11:17:24;98618.66;;;11.73;69.64
36234;BME280;43467;50.890;5.982;2023-03-26T11:20:08;98621.56;;;11.81;70.09
36234;BME280;43467;50.890;5.982;2023-03-26T11:28:07;98626.75;;;11.59;71.02
36234;BME280;43467;50.890;5.982;2023-03-26T11:30:47;98632.72;;;11.50;71.84
36234;BME280;43467;50.890;5.982;2023-03-26T11:33:22;98625.97;;;11.46;71.71
36234;BME280;43467;50.890;5.982;2023-03-26T11:35:50;98633.66;;;11.38;71.12
36234;BME280;43467;50.890;5.982;2023-03-26T11:38:36;98629.09;;;11.40;73.58
36234;BME280;43467;50.890;5.982;2023-03-26T11:41:03;98629.72;;;11.19;73.86
36234;BME280;43467;50.890;5.982;2023-03-26T11:43:35;98634.47;;;11.03;73.31
36234;BME280;43467;50.890;5.982;2023-03-26T11:46:03;98624.53;;;10.94;72.73
36234;BME280;43467;50.890;5.982;2023-03-26T11:48:44;98642.84;;;11.21;72.70
36234;BME280;43467;50.890;5.982;2023-03-26T11:51:15;98635.06;;;11.31;72.81
36234;BME280;43467;50.890;5.982;2023-03-26T11:53:42;98641.59;;;11.14;72.23
36234;BME280;43467;50.890;5.982;2023-03-26T11:56:33;98640.31;;;11.43;73.07
36234;BME280;43467;50.890;5.982;2023-03-26T11:59:09;98646.78;;;11.39;72.68
36234;BME280;43467;50.890;5.982;2023-03-26T12:01:55;98650.53;;;11.37;71.19
36234;BME280;43467;50.890;5.982;2023-03-26T12:07:29;98627.19;;;11.18;71.18
36234;BME280;43467;50.890;5.982;2023-03-26T12:10:06;98647.31;;;11.44;71.76
36234;BME280;43467;50.890;5.982;2023-03-26T12:12:40;98661.59;;;11.42;71.56
36234;BME280;43467;50.890;5.982;2023-03-26T12:15:17;98654.00;;;11.37;70.84
36234;BME280;43467;50.890;5.982;2023-03-26T12:17:45;98661.75;;;11.40;70.84
36234;BME280;43467;50.890;5.982;2023-03-26T12:20:32;98660.47;;;11.33;70.17
36234;BME280;43467;50.890;5.982;2023-03-26T12:23:03;98657.91;;;11.21;72.11
36234;BME280;43467;50.890;5.982;2023-03-26T12:25:37;98665.50;;;11.25;72.59
36234;BME280;43467;50.890;5.982;2023-03-26T12:28:04;98667.31;;;11.48;71.80
36234;BME280;43467;50.890;5.982;2023-03-26T12:33:25;98662.19;;;11.82;70.05
36234;BME280;43467;50.890;5.982;2023-03-26T12:35:52;98670.41;;;11.90;70.10
36234;BME280;43467;50.890;5.982;2023-03-26T12:38:24;98678.38;;;12.01;70.01
36234;BME280;43467;50.890;5.982;2023-03-26T12:46:33;98678.16;;;12.04;68.91
36234;BME280;43467;50.890;5.982;2023-03-26T12:49:03;98680.81;;;12.15;69.56
36234;BME280;43467;50.890;5.982;2023-03-26T12:51:49;98681.81;;;12.25;69.78
36234;BME280;43467;50.890;5.982;2023-03-26T12:54:29;98684.06;;;12.07;68.19
36234;BME280;43467;50.890;5.982;2023-03-26T12:57:20;98681.03;;;12.01;68.79
36234;BME280;43467;50.890;5.982;2023-03-26T13:02:48;98681.72;;;11.92;68.78
36234;BME280;43467;50.890;5.982;2023-03-26T13:05:40;98687.28;;;12.00;69.52
36234;BME280;43467;50.890;5.982;2023-03-26T13:16:11;98687.63;;;11.95;69.91
36234;BME280;43467;50.890;5.982;2023-03-26T13:24:30;98697.19;;;11.98;72.59
36234;BME280;43467;50.890;5.982;2023-03-26T13:38:16;98706.22;;;11.95;73.94
36234;BME280;43467;50.890;5.982;2023-03-26T13:40:55;98701.66;;;11.97;74.53
36234;BME280;43467;50.890;5.982;2023-03-26T13:43:32;98705.88;;;12.00;73.53
36234;BME280;43467;50.890;5.982;2023-03-26T13:46:40;98696.56;;;11.71;73.82
36234;BME280;43467;50.890;5.982;2023-03-26T13:51:49;98716.88;;;11.59;74.72
36234;BME280;43467;50.890;5.982;2023-03-26T13:54:24;98725.06;;;11.56;75.59
36234;BME280;43467;50.890;5.982;2023-03-26T13:59:36;98725.69;;;11.36;74.57
36234;BME280;43467;50.890;5.982;2023-03-26T14:02:32;98727.41;;;11.24;74.81
36234;BME280;43467;50.890;5.982;2023-03-26T14:05:12;98729.97;;;11.13;74.05
36234;BME280;43467;50.890;5.982;2023-03-26T14:07:46;98727.84;;;11.18;74.21
36234;BME280;43467;50.890;5.982;2023-03-26T14:10:23;98736.97;;;11.14;75.75
36234;BME280;43467;50.890;5.982;2023-03-26T14:13:07;98743.66;;;11.07;74.94
36234;BME280;43467;50.890;5.982;2023-03-26T14:15:54;98736.22;;;10.76;76.41
36234;BME280;43467;50.890;5.982;2023-03-26T14:21:35;98757.25;;;10.77;77.80
36234;BME280;43467;50.890;5.982;2023-03-26T14:38:01;98770.09;;;10.70;79.51
36234;BME280;43467;50.890;5.982;2023-03-26T14:51:31;98793.97;;;10.44;81.03
36234;BME280;43467;50.890;5.982;2023-03-26T14:54:04;98803.31;;;10.49;80.37
36234;BME280;43467;50.890;5.982;2023-03-26T14:56:50;98810.41;;;10.49;80.43
36234;BME280;43467;50.890;5.982;2023-03-26T15:36:30;98859.78;;;10.75;80.20
36234;BME280;43467;50.890;5.982;2023-03-26T15:42:17;98873.22;;;10.85;78.66
36234;BME280;43467;50.890;5.982;2023-03-26T15:44:58;98881.59;;;10.79;78.32
36234;BME280;43467;50.890;5.982;2023-03-26T15:53:17;98897.53;;;10.64;78.69
36234;BME280;43467;50.890;5.982;2023-03-26T15:55:59;98908.13;;;10.64;79.55
36234;BME280;43467;50.890;5.982;2023-03-26T15:58:41;98912.44;;;10.53;78.90
36234;BME280;43467;50.890;5.982;2023-03-26T16:01:36;98925.28;;;10.59;79.65
36234;BME280;43467;50.890;5.982;2023-03-26T16:12:30;98944.91;;;10.42;78.90
36234;BME280;43467;50.890;5.982;2023-03-26T16:23:01;98961.19;;;10.36;80.88
36234;BME280;43467;50.890;5.982;2023-03-26T16:25:34;98977.81;;;10.38;81.11
36234;BME280;43467;50.890;5.982;2023-03-26T16:28:37;98974.41;;;10.36;80.89
36234;BME280;43467;50.890;5.982;2023-03-26T16:31:22;98975.19;;;10.38;79.32
36234;BME280;43467;50.890;5.982;2023-03-26T16:36:36;98980.50;;;10.24;78.75
36234;BME280;43467;50.890;5.982;2023-03-26T16:44:43;98998.06;;;10.25;81.31
36234;BME280;43467;50.890;5.982;2023-03-26T16:53:20;99008.94;;;10.06;82.34
36234;BME280;43467;50.890;5.982;2023-03-26T16:58:55;99027.91;;;9.99;83.55
36234;BME280;43467;50.890;5.982;2023-03-26T17:01:58;99035.75;;;10.00;84.21
36234;BME280;43467;50.890;5.982;2023-03-26T17:04:31;99044.91;;;9.95;83.45
36234;BME280;43467;50.890;5.982;2023-03-26T17:12:21;99073.53;;;9.74;85.45
36234;BME280;43467;50.890;5.982;2023-03-26T17:14:52;99072.56;;;9.61;84.65
36234;BME280;43467;50.890;5.982;2023-03-26T17:21:16;99093.41;;;9.51;85.39
36234;BME280;43467;50.890;5.982;2023-03-26T17:26:21;99094.50;;;9.33;86.14
36234;BME280;43467;50.890;5.982;2023-03-26T17:28:59;99104.97;;;9.34;85.91
36234;BME280;43467;50.890;5.982;2023-03-26T17:31:42;99126.53;;;9.27;86.45
36234;BME280;43467;50.890;5.982;2023-03-26T17:42:34;99151.78;;;9.17;85.41
36234;BME280;43467;50.890;5.982;2023-03-26T17:45:17;99158.41;;;9.24;85.24
36234;BME280;43467;50.890;5.982;2023-03-26T17:48:00;99160.94;;;9.25;85.23
36234;BME280;43467;50.890;5.982;2023-03-26T17:50:32;99175.19;;;9.23;84.71
36234;BME280;43467;50.890;5.982;2023-03-26T17:53:12;99177.84;;;9.23;84.46
36234;BME280;43467;50.890;5.982;2023-03-26T17:55:42;99182.50;;;9.18;84.41
36234;BME280;43467;50.890;5.982;2023-03-26T17:58:28;99186.69;;;9.22;84.91
36234;BME280;43467;50.890;5.982;2023-03-26T18:01:22;99192.63;;;9.25;84.49
36234;BME280;43467;50.890;5.982;2023-03-26T18:03:53;99195.69;;;9.33;84.56
36234;BME280;43467;50.890;5.982;2023-03-26T18:06:43;99209.16;;;9.45;84.08
36234;BME280;43467;50.890;5.982;2023-03-26T18:20:45;99226.81;;;9.44;82.84
36234;BME280;43467;50.890;5.982;2023-03-26T18:23:28;99241.03;;;9.42;83.11
36234;BME280;43467;50.890;5.982;2023-03-26T18:25:58;99242.47;;;9.47;83.58
36234;BME280;43467;50.890;5.982;2023-03-26T18:28:40;99256.53;;;9.48;83.19
36234;BME280;43467;50.890;5.982;2023-03-26T18:31:16;99253.03;;;9.47;82.92
36234;BME280;43467;50.890;5.982;2023-03-26T18:33:55;99259.78;;;9.53;83.33
36234;BME280;43467;50.890;5.982;2023-03-26T18:36:25;99277.84;;;9.60;83.03
36234;BME280;43467;50.890;5.982;2023-03-26T18:38:57;99280.97;;;9.67;83.31
36234;BME280;43467;50.890;5.982;2023-03-26T18:41:27;99279.81;;;9.57;79.65
36234;BME280;43467;50.890;5.982;2023-03-26T18:44:00;99290.72;;;9.51;78.60
36234;BME280;43467;50.890;5.982;2023-03-26T18:46:26;99294.38;;;9.48;77.88
36234;BME280;43467;50.890;5.982;2023-03-26T18:48:52;99290.28;;;9.43;74.77
36234;BME280;43467;50.890;5.982;2023-03-26T18:51:19;99288.06;;;9.19;74.29
36234;BME280;43467;50.890;5.982;2023-03-26T18:53:51;99321.38;;;9.22;73.48
36234;BME280;43467;50.890;5.982;2023-03-26T18:59:00;99310.06;;;9.20;73.07
36234;BME280;43467;50.890;5.982;2023-03-26T19:01:27;99335.97;;;9.29;73.54